Flight Number: AVA1523 Duration: 2:00
Departure: Novosibirsk Tolmachevo (UNNT) at 07:15 Distance: 741.03 Nm
Arrival: Ekaterinenburg Koltsovo (USSS) at 09:15 Equipment: MD-81

Weather Information
Station name not available Sep 27, 2020 - 11:30 AM EDT / 2020.09.27 1530 UTC
Wind: from the WSW (240 degrees) at 7 MPH (6 KT):0
Visibility: greater than 7 mile(s):0 Temperature: 41 F (5 C) Dew Point: 37 F (3 C) Relative Humidity: 86% Pressure (altimeter): 30.42 in. Hg (1030 hPa)
ob: UNNT 271530Z 24003MPS CAVOK 05/03 Q1030 R25/090070 R16/090070 NOSIG RMK QFE762/1016 cycle: 15
Sunrise: 00:29 Sunset: 12:10 (UTC)

Ekaterinburg, Russia (USSS) 56-50N 060-38E 283M Sep 27, 2020 - 11:30 AM EDT / 2020.09.27 1530 UTC
Wind: Calm:0
Visibility: greater than 7 mile(s):0 Temperature: 42 F (6 C) Dew Point: 41 F (5 C) Relative Humidity: 93% Pressure (altimeter): 30.47 in. Hg (1032 hPa)
ob: USSS 271530Z 00000MPS CAVOK 06/05 Q1032 R26R/010060 NOSIG RMK QFE753/1004 cycle: 15
Sunrise: 01:58 Sunset: 13:36 (UTC)

TAF:2020/09/27 15:21 TAF USSS 271357Z 2715/2815 24003MPS 3100 BR FU SCT020 TEMPO 2716/2804 0300 FG VV002 BECMG 2805/2806 30003G10MPS CAVOK

Previous Pireps for this route
Date Aircraft Flight time Fuel used Landing rate On time
2018-04-16MD-8102.1114322-375Yes
2020-05-15MD-8102.0813763-128Charter
(pireps marked green are flown by you)

Route map